Time;durP1;ratioP1;P1;durP2;ratioP2;P2;SDS_P1;SDS_P2;PMS_P1;PMS_P2;Temp;Humidity;BMP_temperature;BMP_pressure;BME280_temperature;BME280_humidity;BME280_pressure;Samples;Min_cycle;Max_cycle;Signal;HPM_P1;HPM_P2
2022/12/10 00:01:18;;;;;;;9.52;6.95;;;14.10;61.90;;;;;;6157926;23;20005;-82
2022/12/10 00:03:44;;;;;;;10.65;7.93;;;14.10;62.50;;;;;;6157593;23;20498;-82
2022/12/10 00:06:13;;;;;;;10.48;7.43;;;14.20;62.00;;;;;;6128439;23;20005;-81
2022/12/10 00:08:39;;;;;;;8.75;6.45;;;14.30;62.20;;;;;;6131585;23;20037;-81
2022/12/10 00:11:07;;;;;;;8.93;6.82;;;14.30;61.50;;;;;;6131540;23;20338;-81
2022/12/10 00:13:34;;;;;;;9.68;7.00;;;14.00;62.50;;;;;;6157479;23;20025;-82
2022/12/10 00:16:01;;;;;;;9.15;6.65;;;13.70;63.10;;;;;;6157182;23;20077;-83
2022/12/10 00:18:26;;;;;;;10.80;7.85;;;13.50;63.70;;;;;;6131847;23;20011;-82
2022/12/10 00:20:52;;;;;;;9.88;7.13;;;13.30;64.30;;;;;;6157403;23;20009;-82
2022/12/10 00:23:18;;;;;;;8.02;6.10;;;13.40;64.40;;;;;;6131116;23;20009;-80
2022/12/10 00:25:44;;;;;;;10.85;8.00;;;13.50;63.90;;;;;;6130838;23;20331;-82
2022/12/10 00:28:10;;;;;;;11.18;8.20;;;13.60;64.10;;;;;;6156837;23;20014;-83
2022/12/10 00:30:36;;;;;;;14.15;11.07;;;13.80;63.70;;;;;;6157151;23;20060;-81
2022/12/10 00:33:01;;;;;;;10.73;7.75;;;13.90;63.50;;;;;;6157220;23;20032;-82
2022/12/10 00:35:27;;;;;;;8.10;6.10;;;13.80;63.10;;;;;;6131323;23;20005;-83
2022/12/10 00:37:53;;;;;;;9.48;7.03;;;13.70;63.20;;;;;;6130814;23;20010;-81
2022/12/10 00:40:18;;;;;;;10.15;7.82;;;13.50;63.60;;;;;;6130817;23;20434;-84
2022/12/10 00:42:44;;;;;;;9.32;6.85;;;13.60;63.50;;;;;;6131436;23;20016;-82
2022/12/10 00:45:10;;;;;;;10.82;7.88;;;13.60;63.80;;;;;;6130997;23;20002;-82
2022/12/10 00:47:35;;;;;;;10.05;7.07;;;13.50;64.20;;;;;;6130505;23;20100;-83
2022/12/10 00:50:01;;;;;;;9.73;7.13;;;13.60;64.20;;;;;;6131535;23;20037;-81
2022/12/10 00:52:27;;;;;;;10.25;7.63;;;13.60;63.50;;;;;;6157132;23;20002;-81
2022/12/10 00:54:52;;;;;;;8.95;7.25;;;13.60;64.00;;;;;;6130392;23;20486;-82
2022/12/10 00:57:18;;;;;;;11.40;7.05;;;13.40;64.50;;;;;;6156603;23;20308;-82
2022/12/10 00:59:43;;;;;;;10.52;7.88;;;13.50;64.00;;;;;;6130975;23;20012;-81
2022/12/10 01:02:09;;;;;;;12.23;8.23;;;13.40;64.70;;;;;;6156517;23;20060;-80
2022/12/10 01:04:35;;;;;;;14.43;9.38;;;13.00;65.10;;;;;;6130760;23;20005;-82
2022/12/10 01:07:00;;;;;;;12.35;9.18;;;12.90;65.80;;;;;;6130659;23;20443;-82
2022/12/10 01:09:28;;;;;;;9.80;7.70;;;13.10;65.90;;;;;;6130535;23;20481;-82
2022/12/10 01:11:56;;;;;;;11.48;7.93;;;13.30;65.30;;;;;;6130299;23;20013;-82
2022/12/10 01:14:28;;;;;;;11.52;8.25;;;13.30;65.10;;;;;;6156749;23;20020;-83
2022/12/10 01:16:56;;;;;;;11.02;7.65;;;13.30;65.70;;;;;;6130356;23;20002;-81
2022/12/10 01:19:22;;;;;;;9.93;7.70;;;13.40;64.70;;;;;;6130655;23;20146;-82
2022/12/10 01:21:52;;;;;;;11.80;8.02;;;13.50;64.70;;;;;;6130643;23;20325;-82
2022/12/10 01:24:23;;;;;;;12.27;8.50;;;13.50;65.00;;;;;;6130644;23;20431;-81
2022/12/10 01:26:49;;;;;;;10.10;7.85;;;13.70;64.10;;;;;;6130520;23;20060;-82
2022/12/10 01:29:15;;;;;;;11.85;8.07;;;13.50;64.60;;;;;;6156921;23;20005;-80
2022/12/10 01:31:41;;;;;;;12.15;7.60;;;13.30;65.80;;;;;;6130436;23;20002;-82
2022/12/10 01:34:11;;;;;;;9.07;6.85;;;13.40;65.60;;;;;;6156857;23;20398;-82
2022/12/10 01:36:39;;;;;;;13.82;9.63;;;13.60;64.60;;;;;;6130778;23;20006;-82
2022/12/10 01:39:06;;;;;;;12.27;8.68;;;13.80;64.60;;;;;;6130756;23;20452;-81
2022/12/10 01:41:34;;;;;;;10.90;7.95;;;14.00;64.10;;;;;;6130134;23;20006;-82
2022/12/10 01:44:05;;;;;;;12.52;9.13;;;14.20;63.30;;;;;;6130318;23;20044;-83
2022/12/10 01:46:36;;;;;;;11.13;8.20;;;14.30;63.80;;;;;;6156599;23;19993;-83
2022/12/10 01:49:06;;;;;;;12.35;8.18;;;14.30;63.10;;;;;;6131006;23;20368;-82
2022/12/10 01:51:35;;;;;;;11.80;7.93;;;14.40;62.90;;;;;;6156594;23;20001;-83
2022/12/10 01:54:03;;;;;;;9.68;7.05;;;14.10;63.20;;;;;;6156492;23;20008;-81
2022/12/10 01:56:31;;;;;;;12.43;8.63;;;13.80;63.80;;;;;;6156083;23;20423;-83
2022/12/10 01:58:57;;;;;;;11.40;8.27;;;13.40;65.70;;;;;;6156224;23;20004;-82
2022/12/10 02:01:44;;;;;;;10.20;7.38;;;13.50;65.20;;;;;;6130274;23;20017;-82
2022/12/10 02:04:10;;;;;;;9.00;6.25;;;13.60;65.20;;;;;;6156140;23;20001;-81
2022/12/10 02:06:44;;;;;;;9.27;6.90;;;13.80;64.70;;;;;;6130323;23;20008;-84
2022/12/10 02:09:25;;;;;;;14.05;8.68;;;13.90;64.20;;;;;;6130618;23;20141;-81
2022/12/10 02:12:11;;;;;;;12.80;9.02;;;13.90;64.50;;;;;;6130186;23;20013;-82
2022/12/10 02:14:52;;;;;;;13.88;9.23;;;13.50;65.80;;;;;;6156061;23;20025;-80
2022/12/10 02:17:28;;;;;;;16.77;10.32;;;13.50;66.60;;;;;;6130325;23;20431;-82
2022/12/10 02:20:16;;;;;;;13.55;9.63;;;13.80;65.80;;;;;;6130651;23;20347;-81
2022/12/10 02:23:04;;;;;;;17.35;10.52;;;13.90;65.80;;;;;;6129781;23;20005;-85
2022/12/10 02:25:40;;;;;;;14.23;9.50;;;14.00;65.80;;;;;;6155986;23;20009;-86
2022/12/10 02:28:30;;;;;;;20.92;11.35;;;13.50;67.70;;;;;;6156077;23;20044;-81
2022/12/10 02:30:57;;;;;;;18.93;11.63;;;13.50;67.40;;;;;;6129817;23;20027;-82
2022/12/10 02:33:26;;;;;;;22.38;12.77;;;13.50;66.70;;;;;;6156408;23;20058;-81
2022/12/10 02:35:53;;;;;;;18.02;11.32;;;13.50;67.90;;;;;;6155606;23;20439;-80
2022/12/10 02:38:36;;;;;;;20.25;11.98;;;13.40;67.50;;;;;;6130874;23;20014;-87
2022/12/10 02:41:13;;;;;;;22.20;12.55;;;13.30;68.00;;;;;;6156039;23;20029;-81
2022/12/10 02:43:39;;;;;;;24.67;12.98;;;13.40;68.20;;;;;;6129542;23;20006;-81
2022/12/10 02:46:06;;;;;;;27.77;14.23;;;13.30;67.50;;;;;;6130041;23;20015;-80
2022/12/10 02:48:33;;;;;;;26.50;14.07;;;13.00;68.90;;;;;;6129954;23;20021;-86
2022/12/10 02:50:59;;;;;;;23.02;13.60;;;13.10;68.40;;;;;;6130545;23;20485;-85
2022/12/10 02:53:25;;;;;;;29.63;14.77;;;13.30;67.50;;;;;;6156117;23;20001;-83
2022/12/10 02:55:50;;;;;;;26.52;13.90;;;13.10;67.80;;;;;;6156848;23;20069;-81
2022/12/10 02:58:49;;;;;;;34.53;16.15;;;12.90;69.30;;;;;;6130263;23;19997;-84
2022/12/10 03:01:43;;;;;;;29.92;14.50;;;12.90;68.90;;;;;;6129675;23;20447;-83
2022/12/10 03:04:28;;;;;;;23.02;13.07;;;12.80;69.40;;;;;;6129225;23;20009;-82
2022/12/10 03:07:02;;;;;;;26.77;13.32;;;12.80;69.60;;;;;;6145216;23;20002;-82
2022/12/10 03:09:52;;;;;;;24.48;13.23;;;12.90;69.10;;;;;;6156062;23;20427;-84
2022/12/10 03:12:25;;;;;;;32.53;14.43;;;12.50;69.80;;;;;;6129955;23;20446;-81
2022/12/10 03:14:52;;;;;;;24.73;13.05;;;12.50;69.70;;;;;;6155124;23;20013;-84
2022/12/10 03:17:19;;;;;;;27.33;13.93;;;12.60;69.60;;;;;;6155708;23;20004;-83
2022/12/10 03:19:48;;;;;;;30.17;14.05;;;12.70;69.70;;;;;;6155587;23;20002;-82
2022/12/10 03:22:18;;;;;;;35.63;14.85;;;12.90;68.70;;;;;;6155421;23;20005;-84
2022/12/10 03:24:51;;;;;;;31.13;13.93;;;12.80;69.30;;;;;;6130472;23;20009;-82
2022/12/10 03:27:20;;;;;;;36.83;15.60;;;13.10;68.60;;;;;;6130030;23;20044;-85
2022/12/10 03:29:49;;;;;;;29.05;13.85;;;12.90;68.40;;;;;;6129735;23;20005;-81
2022/12/10 03:32:17;;;;;;;31.33;13.85;;;12.90;68.60;;;;;;6155600;23;20084;-82
2022/12/10 03:34:44;;;;;;;36.13;15.43;;;12.80;68.20;;;;;;6129544;23;20002;-85
2022/12/10 03:37:11;;;;;;;35.15;14.38;;;12.80;68.90;;;;;;6129838;23;20010;-90
2022/12/10 03:39:38;;;;;;;34.08;15.68;;;12.80;69.70;;;;;;6130104;23;20339;-83
2022/12/10 03:42:05;;;;;;;27.63;13.48;;;12.50;70.30;;;;;;6155679;23;20005;-83
2022/12/10 03:44:33;;;;;;;33.67;15.43;;;12.60;69.80;;;;;;6155633;23;20002;-83
2022/12/10 03:46:59;;;;;;;30.48;13.90;;;12.60;69.80;;;;;;6129826;23;20099;-83
2022/12/10 03:49:26;;;;;;;27.23;14.10;;;12.70;69.30;;;;;;6129511;23;20405;-86
2022/12/10 03:51:52;;;;;;;33.10;14.00;;;12.60;69.80;;;;;;6155491;23;20076;-84
2022/12/10 03:54:18;;;;;;;31.02;14.60;;;12.40;69.60;;;;;;6156231;23;20025;-86
2022/12/10 03:56:43;;;;;;;33.25;14.60;;;12.30;69.80;;;;;;6129719;23;20323;-82
2022/12/10 03:59:09;;;;;;;25.25;13.02;;;12.10;70.70;;;;;;6130090;23;20029;-82
2022/12/10 04:01:35;;;;;;;25.27;12.13;;;12.20;71.10;;;;;;6155433;23;20005;-85
2022/12/10 04:04:00;;;;;;;29.00;12.65;;;12.30;70.90;;;;;;6156120;23;20035;-84
2022/12/10 04:06:26;;;;;;;22.77;11.80;;;12.20;70.80;;;;;;6129599;23;20006;-84
2022/12/10 04:08:53;;;;;;;22.08;10.82;;;12.40;70.30;;;;;;6156083;23;20020;-82
2022/12/10 04:11:19;;;;;;;21.17;11.38;;;12.70;69.40;;;;;;6156046;23;20002;-86
2022/12/10 04:16:31;;;;;;;25.10;11.85;;;12.50;69.40;;;;;;6157844;23;20028;-82
2022/12/10 04:19:13;;;;;;;22.75;11.40;;;12.60;70.00;;;;;;6131774;23;20005;-81
2022/12/10 04:27:19;;;;;;;29.73;12.88;;;12.60;69.60;;;;;;6157398;23;20023;-82
2022/12/10 04:29:45;;;;;;;26.83;13.00;;;12.60;69.50;;;;;;6131387;23;20021;-88
2022/12/10 04:32:11;;;;;;;26.58;12.77;;;12.60;69.40;;;;;;6131701;23;20009;-81
2022/12/10 04:34:36;;;;;;;24.20;11.75;;;12.90;69.10;;;;;;6157405;23;20055;-85
2022/12/10 04:37:03;;;;;;;25.63;12.10;;;13.00;69.10;;;;;;6131105;23;20005;-81
2022/12/10 04:39:29;;;;;;;24.40;12.38;;;13.00;68.50;;;;;;6131439;23;20088;-86
2022/12/10 04:41:55;;;;;;;29.38;13.77;;;12.70;69.30;;;;;;6131229;23;20037;-83
2022/12/10 04:44:21;;;;;;;26.88;13.77;;;12.40;69.40;;;;;;6131167;23;20013;-82
2022/12/10 04:46:46;;;;;;;25.75;13.63;;;12.00;71.20;;;;;;6130763;23;20001;-84
2022/12/10 04:49:12;;;;;;;30.90;15.70;;;12.00;71.00;;;;;;6131062;23;20014;-81
2022/12/10 04:51:39;;;;;;;29.98;15.55;;;12.10;70.50;;;;;;6130927;23;20005;-82
2022/12/10 04:54:05;;;;;;;36.92;17.65;;;12.00;71.60;;;;;;6158049;23;20001;-81
2022/12/10 04:56:31;;;;;;;32.42;17.20;;;12.30;71.50;;;;;;6131151;23;20017;-82
2022/12/10 04:58:57;;;;;;;38.80;19.38;;;12.50;69.70;;;;;;6131037;23;19998;-83
2022/12/10 05:01:23;;;;;;;34.53;18.17;;;12.80;69.80;;;;;;6130524;23;20031;-81
2022/12/10 05:03:50;;;;;;;44.15;24.95;;;12.90;68.50;;;;;;6131593;23;20391;-81
2022/12/10 05:06:17;;;;;;;30.45;17.10;;;12.70;68.30;;;;;;6131065;23;20057;-80
2022/12/10 05:08:43;;;;;;;31.38;16.55;;;13.00;69.10;;;;;;6130656;23;20066;-83
2022/12/10 05:11:15;;;;;;;37.83;22.90;;;13.50;67.20;;;;;;6130528;23;20005;-83
2022/12/10 05:13:41;;;;;;;33.15;19.23;;;13.40;67.20;;;;;;6156778;23;20013;-82
2022/12/10 05:16:09;;;;;;;30.88;17.75;;;13.50;66.70;;;;;;6130819;23;20017;-81
2022/12/10 05:18:36;;;;;;;35.33;18.08;;;13.60;65.70;;;;;;6130956;23;20006;-82
2022/12/10 05:21:08;;;;;;;31.73;17.92;;;13.40;67.20;;;;;;6157236;23;20308;-84
2022/12/10 05:23:37;;;;;;;30.73;18.25;;;13.60;65.80;;;;;;6156765;23;20056;-80
2022/12/10 05:26:08;;;;;;;28.10;17.20;;;13.00;67.30;;;;;;6130927;23;19997;-83
2022/12/10 05:28:42;;;;;;;39.92;21.52;;;13.20;67.20;;;;;;6156534;23;20048;-82
2022/12/10 05:31:13;;;;;;;41.55;22.23;;;13.20;67.30;;;;;;6156676;23;20005;-81
2022/12/10 05:33:39;;;;;;;33.55;18.65;;;13.30;67.20;;;;;;6156714;23;20009;-82
2022/12/10 05:36:05;;;;;;;31.25;19.05;;;13.10;67.00;;;;;;6156515;23;20093;-80
2022/12/10 05:38:32;;;;;;;33.45;19.50;;;13.10;67.10;;;;;;6155164;23;20442;-80
2022/12/10 05:41:12;;;;;;;39.63;23.30;;;13.20;67.10;;;;;;6156040;23;20001;-83
2022/12/10 05:43:37;;;;;;;42.13;25.23;;;13.60;66.40;;;;;;6130569;23;20009;-83
2022/12/10 05:46:10;;;;;;;33.13;19.23;;;13.80;65.70;;;;;;6156681;23;20009;-83
2022/12/10 05:48:36;;;;;;;29.50;18.27;;;13.80;65.10;;;;;;6129517;23;20375;-81
2022/12/10 05:51:06;;;;;;;33.63;18.52;;;13.60;65.30;;;;;;6130076;23;20008;-81
2022/12/10 05:53:32;;;;;;;30.60;17.80;;;13.50;65.10;;;;;;6156619;23;20009;-83
2022/12/10 05:56:12;;;;;;;36.97;20.83;;;13.20;66.20;;;;;;6155661;23;20008;-84
2022/12/10 05:58:39;;;;;;;33.53;19.55;;;13.20;66.60;;;;;;6130106;23;20010;-86
2022/12/10 06:01:16;;;;;;;38.38;21.77;;;13.30;66.10;;;;;;6156652;23;20001;-82
2022/12/10 06:03:42;;;;;;;31.67;19.20;;;12.90;66.60;;;;;;6156416;23;20029;-82
2022/12/10 06:06:09;;;;;;;33.15;18.98;;;13.00;67.00;;;;;;6156345;23;20315;-82
2022/12/10 06:08:35;;;;;;;28.30;17.60;;;13.10;66.30;;;;;;6130200;23;20016;-82
2022/12/10 06:11:02;;;;;;;35.90;19.23;;;12.50;67.40;;;;;;6129871;23;19998;-81
2022/12/10 06:13:28;;;;;;;32.95;18.70;;;12.40;68.80;;;;;;6156001;23;20005;-87
2022/12/10 06:16:19;;;;;;;34.10;18.70;;;12.70;67.60;;;;;;6126990;23;20052;-83
2022/12/10 06:18:45;;;;;;;37.58;21.95;;;12.60;67.80;;;;;;6123957;23;20316;-84
2022/12/10 06:21:14;;;;;;;36.45;20.13;;;12.20;68.30;;;;;;6130117;23;20016;-88
2022/12/10 06:23:40;;;;;;;38.47;20.35;;;11.90;68.70;;;;;;6128866;23;20010;-82
2022/12/10 06:26:12;;;;;;;35.53;21.42;;;11.70;69.80;;;;;;6155512;23;19997;-81
2022/12/10 06:28:38;;;;;;;34.72;19.85;;;11.60;69.90;;;;;;6129156;23;20064;-81
2022/12/10 06:31:04;;;;;;;36.40;21.10;;;11.30;70.80;;;;;;6155462;23;20002;-80
2022/12/10 06:33:30;;;;;;;39.25;22.13;;;11.30;69.80;;;;;;6129578;23;20006;-82
2022/12/10 06:35:55;;;;;;;37.50;22.55;;;11.20;70.30;;;;;;6155740;23;20502;-81
2022/12/10 06:38:21;;;;;;;70.88;34.63;;;11.20;70.60;;;;;;6156277;23;20005;-81
2022/12/10 06:40:47;;;;;;;44.13;25.15;;;11.30;70.10;;;;;;6130176;23;20383;-80
2022/12/10 06:43:13;;;;;;;38.95;22.80;;;11.50;69.60;;;;;;6129997;23;20435;-79
2022/12/10 06:45:41;;;;;;;44.38;24.83;;;11.40;68.80;;;;;;6130058;23;20010;-83
2022/12/10 06:48:08;;;;;;;79.72;40.53;;;11.20;69.50;;;;;;6155465;23;20049;-81
2022/12/10 06:50:35;;;;;;;36.65;22.80;;;11.40;69.50;;;;;;6155371;23;20323;-82
2022/12/10 06:53:01;;;;;;;41.22;24.67;;;11.50;68.80;;;;;;6129798;23;20017;-81
2022/12/10 06:55:29;;;;;;;39.40;24.10;;;11.40;68.50;;;;;;6125966;23;20057;-81
2022/12/10 06:57:55;;;;;;;37.42;23.13;;;11.30;70.20;;;;;;6127919;23;20060;-80
2022/12/10 07:00:21;;;;;;;38.60;23.90;;;11.60;68.40;;;;;;6127609;23;20009;-83
2022/12/10 07:02:47;;;;;;;38.78;24.17;;;11.50;68.70;;;;;;6153708;23;20005;-82
2022/12/10 07:05:13;;;;;;;36.28;23.05;;;11.60;68.40;;;;;;6127818;23;20033;-80
2022/12/10 07:07:39;;;;;;;39.25;23.85;;;11.60;68.10;;;;;;6127136;23;20100;-81
2022/12/10 07:10:06;;;;;;;39.67;24.42;;;11.60;68.00;;;;;;6127198;23;20597;-79
2022/12/10 07:12:32;;;;;;;35.60;23.63;;;11.70;68.40;;;;;;6154140;23;20013;-82
2022/12/10 07:14:57;;;;;;;38.35;24.48;;;12.10;66.90;;;;;;6153230;23;20024;-81
2022/12/10 07:17:23;;;;;;;38.22;25.52;;;11.90;65.80;;;;;;6128231;23;20594;-80
2022/12/10 07:19:48;;;;;;;36.95;23.75;;;11.80;66.30;;;;;;6152419;23;20012;-80
2022/12/10 07:22:14;;;;;;;36.17;24.10;;;11.40;66.90;;;;;;6152381;23;20033;-81
2022/12/10 07:24:40;;;;;;;43.40;26.20;;;11.20;68.00;;;;;;6126960;23;20416;-83
2022/12/10 07:27:07;;;;;;;43.13;26.15;;;11.10;68.40;;;;;;6153378;23;20352;-82
2022/12/10 07:29:33;;;;;;;44.95;26.95;;;11.10;68.20;;;;;;6127742;23;20009;-78
2022/12/10 07:31:58;;;;;;;42.92;26.13;;;11.00;68.50;;;;;;6129382;23;20335;-83
2022/12/10 07:34:24;;;;;;;41.00;25.63;;;11.10;68.40;;;;;;6129255;23;20009;-81
2022/12/10 07:36:50;;;;;;;41.53;27.20;;;11.10;68.00;;;;;;6129180;23;20001;-80
2022/12/10 07:39:18;;;;;;;41.05;25.33;;;11.20;68.50;;;;;;6155168;23;20008;-83
2022/12/10 07:41:47;;;;;;;51.08;31.70;;;11.40;67.30;;;;;;6155151;23;20431;-80
2022/12/10 07:44:13;;;;;;;47.60;28.40;;;11.40;68.10;;;;;;6124569;23;20060;-79
2022/12/10 07:46:39;;;;;;;45.90;27.35;;;11.70;66.40;;;;;;6155011;23;20009;-79
2022/12/10 07:49:05;;;;;;;44.65;27.40;;;11.70;66.90;;;;;;6131126;23;20029;-82
2022/12/10 07:51:31;;;;;;;57.22;34.20;;;11.90;65.90;;;;;;6156456;23;20319;-81
2022/12/10 07:53:57;;;;;;;41.13;26.77;;;12.00;65.50;;;;;;6156840;23;20080;-81
2022/12/10 07:56:24;;;;;;;42.22;26.88;;;11.80;66.00;;;;;;6130915;23;20012;-80
2022/12/10 07:58:50;;;;;;;41.38;25.75;;;11.70;66.60;;;;;;6130744;23;20060;-83
2022/12/10 08:01:19;;;;;;;41.60;26.45;;;11.80;66.90;;;;;;6130073;23;20438;-83
2022/12/10 08:03:45;;;;;;;38.63;25.33;;;11.70;66.00;;;;;;6130848;23;20010;-82
2022/12/10 08:06:16;;;;;;;40.70;26.10;;;11.80;66.10;;;;;;6156698;23;20242;-81
2022/12/10 08:08:43;;;;;;;43.22;26.58;;;12.00;65.00;;;;;;6156454;23;20024;-81
2022/12/10 08:11:10;;;;;;;45.60;28.70;;;11.80;65.80;;;;;;6156988;23;19997;-81
2022/12/10 08:13:36;;;;;;;50.90;33.05;;;11.50;66.60;;;;;;6130704;23;20096;-82
2022/12/10 08:16:09;;;;;;;51.35;32.22;;;11.70;66.50;;;;;;6156586;23;20132;-82
2022/12/10 08:18:36;;;;;;;44.75;28.10;;;11.80;65.90;;;;;;6130470;23;20089;-81
2022/12/10 08:21:13;;;;;;;44.78;28.13;;;11.90;65.80;;;;;;6156404;23;20009;-79
2022/12/10 08:23:40;;;;;;;42.10;26.45;;;12.10;65.50;;;;;;6130208;23;20009;-82
2022/12/10 08:26:08;;;;;;;43.92;27.77;;;12.10;65.30;;;;;;6129947;23;20008;-82
2022/12/10 08:28:34;;;;;;;41.42;26.33;;;12.50;64.70;;;;;;6130272;23;20072;-79
2022/12/10 08:31:00;;;;;;;42.40;26.67;;;13.10;64.40;;;;;;6156123;23;20002;-84
2022/12/10 08:33:26;;;;;;;41.58;27.27;;;13.40;62.80;;;;;;6131057;23;20135;-83
2022/12/10 08:35:51;;;;;;;39.45;25.98;;;13.40;63.10;;;;;;6131413;23;20010;-84
2022/12/10 08:38:17;;;;;;;38.53;25.65;;;13.60;62.50;;;;;;6130431;23;20376;-83
2022/12/10 08:40:44;;;;;;;45.03;31.17;;;14.00;61.60;;;;;;6131309;23;20009;-84
2022/12/10 08:43:09;;;;;;;44.63;28.60;;;14.10;61.40;;;;;;6129230;23;20037;-82
2022/12/10 08:45:35;;;;;;;41.92;25.70;;;14.90;60.40;;;;;;6155315;23;20080;-81
2022/12/10 08:48:02;;;;;;;38.85;24.25;;;15.50;58.40;;;;;;6156107;23;20017;-82
2022/12/10 08:50:28;;;;;;;33.95;23.25;;;15.30;58.90;;;;;;6130248;23;20032;-83
2022/12/10 08:52:56;;;;;;;35.15;23.17;;;15.40;58.80;;;;;;6130034;23;20424;-80
2022/12/10 08:55:22;;;;;;;27.88;19.27;;;16.10;57.50;;;;;;6131376;23;20377;-80
2022/12/10 08:57:47;;;;;;;26.60;19.27;;;17.20;57.00;;;;;;6129120;23;20033;-82
2022/12/10 09:00:14;;;;;;;25.63;18.58;;;18.40;54.40;;;;;;6129546;23;20009;-82
2022/12/10 09:02:40;;;;;;;26.75;18.30;;;18.40;53.60;;;;;;6156242;23;20002;-82
2022/12/10 09:05:07;;;;;;;27.70;18.42;;;17.80;53.90;;;;;;6129905;23;20002;-82
2022/12/10 09:07:33;;;;;;;29.60;19.52;;;17.20;55.20;;;;;;6130122;23;20017;-82
2022/12/10 09:09:58;;;;;;;31.60;20.98;;;16.70;55.60;;;;;;6129794;23;20088;-83
2022/12/10 09:12:24;;;;;;;29.23;18.67;;;15.90;56.70;;;;;;6130484;23;20009;-82
2022/12/10 09:14:50;;;;;;;32.42;23.08;;;15.50;57.50;;;;;;6126075;23;20025;-81
2022/12/10 09:17:16;;;;;;;31.50;21.25;;;15.40;58.20;;;;;;6156441;23;20009;-84
2022/12/10 09:19:41;;;;;;;31.33;20.05;;;15.50;58.50;;;;;;6130014;23;20067;-83
2022/12/10 09:22:08;;;;;;;29.42;19.83;;;15.30;58.90;;;;;;6156306;23;20033;-83
2022/12/10 09:24:34;;;;;;;32.53;20.58;;;15.30;58.80;;;;;;6156044;23;20001;-82
2022/12/10 09:27:00;;;;;;;28.38;18.88;;;15.10;59.00;;;;;;6156478;23;20002;-84
2022/12/10 09:29:26;;;;;;;29.25;18.25;;;14.80;58.30;;;;;;6155826;23;20002;-79
2022/12/10 09:31:52;;;;;;;35.30;22.70;;;14.30;60.10;;;;;;6156175;23;20002;-83
2022/12/10 09:34:18;;;;;;;32.65;20.77;;;14.30;60.70;;;;;;6129102;23;20343;-82
2022/12/10 09:36:45;;;;;;;33.50;21.52;;;14.50;60.40;;;;;;6155707;23;20001;-81
2022/12/10 09:39:11;;;;;;;35.35;22.50;;;14.50;60.30;;;;;;6130531;23;20001;-82
2022/12/10 09:42:10;;;;;;;33.10;20.48;;;14.50;61.20;;;;;;6156645;23;20008;-84
2022/12/10 09:45:12;;;;;;;27.77;18.27;;;14.30;60.80;;;;;;6127705;23;20426;-84
2022/12/10 09:47:45;;;;;;;34.75;22.55;;;14.20;60.70;;;;;;6155713;23;20021;-82
2022/12/10 09:50:20;;;;;;;35.30;22.02;;;14.40;60.60;;;;;;6130771;23;20016;-82
2022/12/10 09:52:47;;;;;;;29.13;17.90;;;14.60;60.30;;;;;;6155938;23;20415;-81
2022/12/10 09:55:30;;;;;;;33.55;20.00;;;14.40;60.00;;;;;;6129649;23;20013;-83
2022/12/10 09:58:04;;;;;;;34.15;21.60;;;14.00;60.90;;;;;;6130920;23;20085;-83
2022/12/10 10:00:29;;;;;;;35.45;20.55;;;13.60;61.80;;;;;;6156282;23;20012;-83
2022/12/10 10:03:01;;;;;;;36.60;20.35;;;13.60;62.00;;;;;;6156755;23;20309;-85
2022/12/10 10:05:32;;;;;;;33.50;21.40;;;13.80;61.50;;;;;;6156003;23;20057;-81
2022/12/10 10:08:01;;;;;;;43.45;25.77;;;13.90;61.60;;;;;;6155691;23;20014;-82
2022/12/10 10:10:36;;;;;;;37.22;22.92;;;14.00;60.60;;;;;;6155734;23;20023;-82
2022/12/10 10:13:08;;;;;;;33.83;21.52;;;14.00;61.30;;;;;;6129239;23;20018;-82
2022/12/10 10:15:36;;;;;;;38.92;23.35;;;14.10;61.10;;;;;;6155646;23;20013;-79
2022/12/10 10:18:17;;;;;;;35.05;20.35;;;14.10;61.00;;;;;;6154890;23;20005;-81
2022/12/10 10:20:43;;;;;;;43.22;23.88;;;14.00;61.10;;;;;;6129649;23;20084;-84
2022/12/10 10:23:13;;;;;;;39.47;23.70;;;13.80;61.20;;;;;;6129931;23;20401;-81
2022/12/10 10:25:39;;;;;;;40.80;25.13;;;13.80;61.40;;;;;;6128869;23;20351;-81
2022/12/10 10:28:05;;;;;;;40.25;24.27;;;13.80;60.70;;;;;;6129148;23;20017;-82
2022/12/10 10:30:30;;;;;;;37.22;22.60;;;13.70;61.10;;;;;;6155137;23;20419;-80
2022/12/10 10:33:02;;;;;;;40.20;24.77;;;13.80;61.10;;;;;;6128936;23;20040;-82
2022/12/10 10:35:33;;;;;;;38.83;25.05;;;13.80;61.40;;;;;;6155410;23;20359;-81
2022/12/10 10:38:04;;;;;;;38.05;24.33;;;13.90;60.90;;;;;;6130212;23;20060;-83
2022/12/10 10:40:39;;;;;;;38.47;24.27;;;13.90;61.10;;;;;;6129132;23;20044;-80
2022/12/10 10:43:05;;;;;;;39.83;24.75;;;13.80;61.70;;;;;;6129206;23;20014;-83
2022/12/10 10:45:40;;;;;;;49.70;27.85;;;13.80;61.40;;;;;;6130114;23;20009;-81
2022/12/10 10:48:09;;;;;;;43.17;26.02;;;13.80;61.00;;;;;;6128527;23;20069;-80
2022/12/10 10:50:40;;;;;;;40.08;24.67;;;13.90;61.00;;;;;;6128692;23;20245;-81
2022/12/10 10:53:27;;;;;;;37.03;23.05;;;14.00;59.90;;;;;;6129116;23;20006;-83
2022/12/10 10:55:56;;;;;;;42.05;24.95;;;13.40;61.00;;;;;;6129786;23;20006;-80
2022/12/10 10:58:24;;;;;;;38.35;24.88;;;13.40;61.90;;;;;;6129809;23;20010;-83
2022/12/10 11:00:59;;;;;;;65.93;56.17;;;13.40;62.20;;;;;;6127387;23;20327;-80
2022/12/10 11:03:28;;;;;;;40.00;24.40;;;13.80;61.30;;;;;;6128579;23;20100;-82
2022/12/10 11:05:57;;;;;;;41.90;26.95;;;14.00;60.20;;;;;;6128909;23;20037;-81
2022/12/10 11:08:27;;;;;;;39.63;25.15;;;13.90;60.60;;;;;;6154122;23;20013;-81
2022/12/10 11:11:04;;;;;;;;;;;13.80;60.10;;;;;;6130074;23;20566;-84
2022/12/10 11:13:33;;;;;;;39.17;23.98;;;13.40;61.50;;;;;;6153100;23;19904;-79
2022/12/10 11:16:10;;;;;;;47.08;28.50;;;12.90;62.80;;;;;;6127273;23;20096;-79
2022/12/10 11:18:42;;;;;;;42.75;26.83;;;12.80;63.00;;;;;;6152488;23;20093;-80
2022/12/10 11:21:19;;;;;;;51.83;29.27;;;13.30;62.20;;;;;;6126607;23;20014;-78
2022/12/10 11:23:52;;;;;;;67.63;38.10;;;13.50;61.20;;;;;;6128779;23;20001;-81
2022/12/10 11:26:40;;;;;;;155.48;71.18;;;13.50;61.20;;;;;;6128139;23;20005;-79
2022/12/10 11:29:17;;;;;;;46.47;28.48;;;13.50;60.70;;;;;;6156894;23;20017;-80
2022/12/10 11:31:51;;;;;;;42.88;27.08;;;13.40;60.80;;;;;;6157199;23;20008;-82
2022/12/10 11:34:31;;;;;;;42.55;25.63;;;13.20;61.70;;;;;;6156738;23;20395;-81
2022/12/10 11:37:27;;;;;;;43.85;26.80;;;12.80;62.00;;;;;;6154000;23;20340;-81
2022/12/10 11:40:20;;;;;;;39.92;24.75;;;12.90;62.60;;;;;;6155232;23;20008;-79
2022/12/10 11:43:01;;;;;;;42.80;25.60;;;12.90;62.30;;;;;;6129644;23;20428;-79
2022/12/10 11:45:33;;;;;;;;;;;12.80;62.00;;;;;;6129373;23;20009;-82
2022/12/10 11:48:32;;;;;;;42.28;27.05;;;12.50;63.10;;;;;;6127589;23;19908;-79
2022/12/10 11:51:13;;;;;;;40.28;26.08;;;13.00;62.80;;;;;;6154827;23;20048;-80
2022/12/10 11:54:01;;;;;;;44.50;24.58;;;13.20;62.00;;;;;;6128585;23;20020;-81
2022/12/10 11:56:48;;;;;;;40.90;25.38;;;12.90;62.40;;;;;;6128881;23;20097;-82
2022/12/10 11:59:40;;;;;;;48.05;26.88;;;12.80;62.10;;;;;;6130309;23;20016;-79
2022/12/10 12:02:27;;;;;;;50.17;30.17;;;12.80;62.70;;;;;;6129297;23;20013;-79
2022/12/10 12:05:07;;;;;;;47.03;27.50;;;12.90;62.70;;;;;;6156877;23;19997;-80
2022/12/10 12:07:36;;;;;;;48.30;28.67;;;13.00;62.50;;;;;;6130951;23;20355;-82
2022/12/10 12:10:27;;;;;;;45.03;26.55;;;13.20;62.10;;;;;;6157127;23;20052;-82
2022/12/10 12:13:10;;;;;;;43.25;25.45;;;13.40;61.20;;;;;;6117266;23;20434;-81
2022/12/10 12:15:57;;;;;;;44.17;27.55;;;13.10;62.50;;;;;;6129999;23;20009;-80
2022/12/10 12:18:47;;;;;;;45.38;26.55;;;13.10;62.00;;;;;;6156435;23;20001;-80
2022/12/10 12:21:15;;;;;;;49.65;27.90;;;13.30;61.20;;;;;;6129974;23;20036;-81
2022/12/10 12:23:50;;;;;;;43.75;26.92;;;13.40;61.70;;;;;;6129622;23;20021;-80
2022/12/10 12:26:37;;;;;;;48.03;26.83;;;13.40;61.30;;;;;;6130369;23;20002;-83
2022/12/10 12:29:15;;;;;;;40.08;26.15;;;13.60;61.10;;;;;;6131237;23;20045;-82
2022/12/10 12:31:47;;;;;;;42.92;25.38;;;13.60;60.50;;;;;;6129311;23;20013;-81
2022/12/10 12:34:39;;;;;;;49.88;29.30;;;13.30;61.60;;;;;;6146588;23;20057;-79
2022/12/10 12:37:07;;;;;;;46.85;28.10;;;13.00;62.40;;;;;;6148884;23;20451;-80
2022/12/10 12:39:37;;;;;;;51.53;27.85;;;13.10;62.30;;;;;;6130511;23;20001;-81
2022/12/10 12:42:21;;;;;;;46.17;26.92;;;13.20;61.80;;;;;;6131129;23;20005;-81
2022/12/10 12:45:02;;;;;;;42.35;25.17;;;13.30;61.50;;;;;;6130425;23;20437;-80
2022/12/10 12:47:33;;;;;;;49.70;28.15;;;13.50;61.60;;;;;;6130194;23;20089;-80
2022/12/10 12:50:01;;;;;;;50.63;29.55;;;13.30;61.20;;;;;;6130095;23;20005;-80
2022/12/10 12:52:36;;;;;;;48.70;28.55;;;13.10;62.30;;;;;;6155935;23;20005;-82
2022/12/10 12:55:15;;;;;;;48.90;30.33;;;13.30;61.70;;;;;;6130789;23;20020;-80